Time;durP1;ratioP1;P1;durP2;ratioP2;P2;SDS_P1;SDS_P2;PMS_P1;PMS_P2;Temp;Humidity;BMP_temperature;BMP_pressure;BME280_temperature;BME280_humidity;BME280_pressure;Samples;Min_cycle;Max_cycle;Signal;HPM_P1;HPM_P2
2021/08/22 00:01:12;;;;;;;8.13;5.63;;;;;;;22.67;67.63;98739.84;4953874;28;20027;-61
2021/08/22 00:03:38;;;;;;;8.43;5.95;;;;;;;22.57;67.82;98735.84;4937476;28;20078;-61
2021/08/22 00:06:04;;;;;;;9.32;5.47;;;;;;;22.48;68.46;98749.63;4950880;28;20062;-61
2021/08/22 00:08:29;;;;;;;8.25;5.82;;;;;;;22.24;68.71;98707.00;4956103;28;20034;-59
2021/08/22 00:10:55;;;;;;;8.85;5.72;;;;;;;22.13;68.90;98697.94;4954048;28;20024;-59
2021/08/22 00:13:22;;;;;;;8.77;5.20;;;;;;;22.08;69.27;98689.84;4953388;28;20034;-61
2021/08/22 00:15:48;;;;;;;8.88;5.95;;;;;;;22.43;69.43;98734.34;4955559;28;20043;-61
2021/08/22 00:18:14;;;;;;;9.32;6.05;;;;;;;22.30;69.55;98726.53;4956890;28;20118;-61
2021/08/22 00:20:39;;;;;;;8.85;5.57;;;;;;;22.38;69.61;98739.50;4960656;28;20185;-61
2021/08/22 00:23:05;;;;;;;8.90;5.78;;;;;;;22.41;68.40;98726.63;4956649;28;20042;-62
2021/08/22 00:25:30;;;;;;;8.30;5.85;;;;;;;22.11;67.40;98692.06;4959512;28;20122;-61
2021/08/22 00:27:55;;;;;;;7.10;5.18;;;;;;;22.46;67.30;98732.09;4958811;28;20129;-61
2021/08/22 00:30:21;;;;;;;9.50;5.65;;;;;;;22.33;67.45;98723.47;4950722;28;20019;-60
2021/08/22 00:32:47;;;;;;;7.82;5.25;;;;;;;22.27;67.82;98733.91;4953214;28;20066;-61
2021/08/22 00:35:13;;;;;;;10.50;6.45;;;;;;;22.18;68.37;98718.50;4956423;28;20125;-61
2021/08/22 00:37:39;;;;;;;8.32;5.40;;;;;;;22.27;67.84;98718.00;4954484;28;20034;-61
2021/08/22 00:40:05;;;;;;;9.68;6.10;;;;;;;22.22;67.92;98717.00;4953640;28;20025;-60
2021/08/22 00:42:31;;;;;;;9.55;5.93;;;;;;;21.92;68.23;98666.56;4950916;28;20062;-62
2021/08/22 00:44:57;;;;;;;7.75;4.82;;;;;;;21.93;68.15;98671.63;4953189;28;20054;-60
2021/08/22 00:47:23;;;;;;;10.10;5.78;;;;;;;22.18;68.27;98707.91;4950580;28;20914;-61
2021/08/22 00:49:48;;;;;;;8.52;5.63;;;;;;;22.06;68.47;98711.22;4954670;28;20094;-60
2021/08/22 00:52:13;;;;;;;7.45;5.82;;;;;;;22.06;68.88;98726.31;4955678;28;20106;-60
2021/08/22 00:54:42;;;;;;;8.93;5.97;;;;;;;22.10;68.72;98708.97;4953892;28;20030;-60
2021/08/22 00:57:07;;;;;;;8.07;5.35;;;;;;;22.13;68.72;98723.63;4953325;28;20069;-61
2021/08/22 00:59:37;;;;;;;7.55;5.70;;;;;;;21.88;69.04;98711.97;4951783;28;20034;-61
2021/08/22 01:02:03;;;;;;;8.82;5.35;;;;;;;21.89;69.31;98716.25;4952080;28;20090;-61
2021/08/22 01:04:47;;;;;;;9.82;5.90;;;;;;;21.98;69.28;98726.59;4952816;28;20087;-61
2021/08/22 01:07:20;;;;;;;9.65;5.47;;;;;;;21.95;69.50;98727.81;4953557;28;20110;-61
2021/08/22 01:09:50;;;;;;;10.57;5.68;;;;;;;21.97;69.65;98728.41;4949430;28;20114;-60
2021/08/22 01:12:32;;;;;;;9.07;5.63;;;;;;;21.87;69.74;98728.91;4968385;28;20093;-60
2021/08/22 01:15:07;;;;;;;9.10;5.68;;;;;;;21.65;69.48;98680.81;4953216;28;20038;-61
2021/08/22 01:17:34;;;;;;;9.23;5.93;;;;;;;21.95;69.35;98727.81;4957697;28;20035;-60
2021/08/22 01:20:05;;;;;;;8.82;5.55;;;;;;;21.91;69.31;98723.19;4957173;28;20034;-60
2021/08/22 01:22:31;;;;;;;11.18;5.90;;;;;;;21.87;69.43;98720.16;4955566;28;20505;-61
2021/08/22 01:24:57;;;;;;;9.02;5.78;;;;;;;21.85;69.14;98716.91;4955807;28;20401;-61
2021/08/22 01:27:23;;;;;;;7.75;5.55;;;;;;;21.76;69.33;98720.81;4948528;28;20670;-60
2021/08/22 01:29:53;;;;;;;9.80;5.22;;;;;;;21.50;69.18;98665.25;4956231;28;20508;-61
2021/08/22 01:32:19;;;;;;;10.27;5.57;;;;;;;21.72;69.04;98693.19;4942252;28;20126;-61
2021/08/22 01:34:45;;;;;;;10.38;5.57;;;;;;;21.83;69.09;98711.00;4953932;28;20098;-61
2021/08/22 01:37:10;;;;;;;7.85;5.22;;;;;;;21.76;69.05;98708.44;4958961;28;20027;-61
2021/08/22 01:39:37;;;;;;;8.35;5.75;;;;;;;21.76;69.09;98705.78;4939652;28;20055;-61
2021/08/22 01:42:05;;;;;;;8.05;4.93;;;;;;;21.84;68.86;98700.22;4937978;28;20073;-61
2021/08/22 01:44:31;;;;;;;7.60;5.32;;;;;;;21.78;68.95;98695.00;4958802;28;20027;-61
2021/08/22 01:46:56;;;;;;;8.40;5.40;;;;;;;21.76;69.00;98700.50;4960860;28;20045;-62
2021/08/22 01:49:22;;;;;;;9.85;5.47;;;;;;;21.51;69.27;98658.13;4973275;28;20414;-61
2021/08/22 01:51:48;;;;;;;8.45;5.38;;;;;;;21.50;69.49;98652.03;4961395;28;20085;-61
2021/08/22 01:54:13;;;;;;;7.97;5.20;;;;;;;21.79;69.31;98696.59;4939794;28;20494;-61
2021/08/22 01:56:40;;;;;;;9.23;5.70;;;;;;;21.66;69.29;98685.06;4943988;28;20077;-61
2021/08/22 01:59:06;;;;;;;8.38;5.60;;;;;;;21.76;69.37;98697.00;4957715;28;20061;-61
2021/08/22 02:01:33;;;;;;;10.30;5.72;;;;;;;21.75;69.50;98700.69;4957524;28;20117;-60
2021/08/22 02:04:03;;;;;;;8.55;5.13;;;;;;;21.69;69.59;98702.38;4943530;28;20077;-62
2021/08/22 02:06:31;;;;;;;;;;;;;;;21.78;69.69;98705.56;4975998;28;20030;-61
2021/08/22 02:09:00;;;;;;;8.00;5.32;;;;;;;21.63;69.68;98689.97;4957347;28;20428;-61
2021/08/22 02:11:28;;;;;;;11.43;5.47;;;;;;;21.67;69.57;98707.88;4968331;28;20109;-60
2021/08/22 02:13:54;;;;;;;8.73;5.22;;;;;;;21.29;69.97;98652.34;4943779;28;20035;-61
2021/08/22 02:16:25;;;;;;;7.70;5.13;;;;;;;21.42;69.72;98667.31;4973005;28;20093;-61
2021/08/22 02:18:52;;;;;;;8.02;5.18;;;;;;;21.49;69.98;98682.13;4974784;28;20054;-60
2021/08/22 02:21:19;;;;;;;8.70;5.07;;;;;;;21.53;70.26;98687.00;4955706;28;20070;-61
2021/08/22 02:23:46;;;;;;;8.13;5.32;;;;;;;21.57;70.30;98696.13;4971802;28;20100;-60
2021/08/22 02:26:11;;;;;;;9.45;5.25;;;;;;;21.54;70.38;98696.56;4953460;28;20027;-61
2021/08/22 02:28:36;;;;;;;7.95;5.20;;;;;;;21.49;70.51;98692.72;4960943;28;20056;-61
2021/08/22 02:31:02;;;;;;;8.48;6.07;;;;;;;21.30;70.28;98657.44;4953882;28;20466;-61
2021/08/22 02:33:27;;;;;;;9.00;5.90;;;;;;;21.52;70.56;98688.84;4959878;28;20546;-61
2021/08/22 02:35:53;;;;;;;8.20;5.75;;;;;;;21.51;70.55;98679.28;4960469;28;20598;-61
2021/08/22 02:38:18;;;;;;;8.15;5.93;;;;;;;21.52;69.86;98665.06;4974785;28;20049;-61
2021/08/22 02:40:44;;;;;;;8.75;5.25;;;;;;;21.52;70.14;98670.34;4955102;28;20035;-61
2021/08/22 02:43:09;;;;;;;9.18;5.75;;;;;;;21.64;70.37;98678.38;4955230;28;20042;-61
2021/08/22 02:45:35;;;;;;;8.13;5.20;;;;;;;21.48;70.23;98679.72;4967872;28;20496;-61
2021/08/22 02:48:01;;;;;;;9.88;5.45;;;;;;;21.39;70.42;98681.75;4961768;28;20043;-60
2021/08/22 02:50:28;;;;;;;8.52;5.30;;;;;;;21.44;70.12;98697.81;4957342;28;20023;-60
2021/08/22 02:52:54;;;;;;;8.75;6.45;;;;;;;21.37;70.87;98693.59;4960240;28;20035;-60
2021/08/22 02:55:19;;;;;;;10.60;5.80;;;;;;;21.43;71.09;98693.56;4965258;28;20500;-61
2021/08/22 02:57:44;;;;;;;8.35;5.28;;;;;;;21.38;71.32;98698.66;4961127;28;20117;-61
2021/08/22 03:00:10;;;;;;;9.18;5.97;;;;;;;21.43;71.30;98693.56;4961391;28;20130;-61
2021/08/22 03:02:36;;;;;;;7.90;5.05;;;;;;;21.36;71.41;98691.97;4957173;28;20038;-61
2021/08/22 03:05:02;;;;;;;7.97;5.57;;;;;;;21.33;71.44;98685.25;4958774;28;20533;-61
2021/08/22 03:07:27;;;;;;;9.07;5.32;;;;;;;21.36;71.29;98691.97;4961760;28;20517;-62
2021/08/22 03:09:53;;;;;;;9.38;6.18;;;;;;;21.31;71.37;98685.47;4957019;28;20030;-60
2021/08/22 03:12:18;;;;;;;8.60;5.90;;;;;;;21.36;71.25;98678.75;4959866;28;20180;-60
2021/08/22 03:14:44;;;;;;;8.93;5.43;;;;;;;21.31;71.44;98679.38;4957727;28;20023;-61
2021/08/22 03:17:09;;;;;;;10.68;5.80;;;;;;;20.99;71.19;98615.91;4957159;28;20077;-61
2021/08/22 03:19:34;;;;;;;8.57;5.40;;;;;;;21.09;71.11;98634.75;4950129;28;20509;-60
2021/08/22 03:22:00;;;;;;;9.25;5.88;;;;;;;21.05;70.99;98620.34;4949583;28;20038;-61
2021/08/22 03:24:25;;;;;;;8.43;5.57;;;;;;;21.29;71.03;98661.06;4948793;28;20032;-61
2021/08/22 03:26:50;;;;;;;7.55;5.25;;;;;;;21.28;71.18;98661.28;4955240;28;20045;-60
2021/08/22 03:29:16;;;;;;;9.43;5.90;;;;;;;21.25;70.91;98654.59;4952815;28;20491;-61
2021/08/22 03:31:41;;;;;;;10.23;5.78;;;;;;;21.26;70.90;98653.56;4948784;28;20069;-60
2021/08/22 03:34:07;;;;;;;8.90;5.40;;;;;;;20.96;70.95;98605.75;4936608;28;20063;-61
2021/08/22 03:36:32;;;;;;;8.00;5.28;;;;;;;21.24;70.62;98642.38;4940919;28;20451;-61
2021/08/22 03:38:58;;;;;;;8.15;5.65;;;;;;;21.31;70.37;98637.88;4955750;28;20044;-60
2021/08/22 03:41:23;;;;;;;8.82;5.72;;;;;;;21.27;70.39;98626.09;4938247;28;20039;-60
2021/08/22 03:43:48;;;;;;;7.30;5.15;;;;;;;21.04;70.10;98587.00;4950563;28;20030;-61
2021/08/22 03:46:14;;;;;;;8.25;5.18;;;;;;;21.28;70.45;98640.97;4955107;28;20033;-60
2021/08/22 03:48:39;;;;;;;9.65;5.70;;;;;;;21.02;69.94;98596.16;4950974;28;20024;-61
2021/08/22 03:51:04;;;;;;;8.52;5.65;;;;;;;21.28;69.98;98653.34;4956740;28;20474;-61
2021/08/22 03:53:30;;;;;;;7.85;5.30;;;;;;;21.24;70.08;98642.38;4950018;28;20062;-60
2021/08/22 03:55:55;;;;;;;8.02;5.70;;;;;;;21.36;69.87;98653.13;4960160;28;20035;-59
2021/08/22 03:58:21;;;;;;;7.97;5.40;;;;;;;21.34;70.08;98660.44;4958445;28;20725;-61
2021/08/22 04:00:46;;;;;;;7.97;5.22;;;;;;;21.40;70.24;98664.88;4957107;28;20042;-61
2021/08/22 04:03:11;;;;;;;9.07;5.20;;;;;;;21.41;70.69;98660.38;4953897;28;20031;-60
2021/08/22 04:05:37;;;;;;;9.38;5.57;;;;;;;21.34;70.98;98651.69;4955741;28;20038;-60
2021/08/22 04:08:03;;;;;;;11.48;5.88;;;;;;;21.35;71.09;98663.91;4952564;28;20085;-61
2021/08/22 04:10:29;;;;;;;10.50;5.60;;;;;;;21.24;70.30;98629.16;4957044;28;20031;-60
2021/08/22 04:12:55;;;;;;;8.55;5.60;;;;;;;21.37;70.44;98653.91;4958539;28;20113;-60
2021/08/22 04:15:21;;;;;;;8.85;5.72;;;;;;;21.28;70.44;98648.06;4962794;28;20140;-61
2021/08/22 04:17:46;;;;;;;8.82;5.72;;;;;;;21.31;70.33;98645.00;4956537;28;20061;-61
2021/08/22 04:20:13;;;;;;;8.77;5.55;;;;;;;21.31;70.01;98651.09;4958914;28;20049;-61
2021/08/22 04:22:39;;;;;;;10.38;5.93;;;;;;;21.35;69.80;98653.31;4948643;28;20031;-61
2021/08/22 04:25:10;;;;;;;10.20;5.05;;;;;;;21.37;69.37;98651.28;4957620;28;20033;-61
2021/08/22 04:27:37;;;;;;;8.43;5.07;;;;;;;21.35;69.06;98656.78;4955590;28;20042;-61
2021/08/22 04:30:03;;;;;;;8.77;5.40;;;;;;;21.40;68.93;98656.94;4958322;28;20035;-61
2021/08/22 04:32:28;;;;;;;9.98;5.90;;;;;;;21.10;69.23;98611.75;4958324;28;20035;-60
2021/08/22 04:34:54;;;;;;;8.25;5.22;;;;;;;21.35;69.23;98655.97;4958353;28;20105;-60
2021/08/22 04:37:19;;;;;;;8.40;5.10;;;;;;;21.35;68.92;98642.75;4957719;28;20023;-61
2021/08/22 04:39:44;;;;;;;9.23;5.53;;;;;;;21.37;69.25;98657.38;4952291;28;20035;-61
2021/08/22 04:42:10;;;;;;;7.50;5.38;;;;;;;21.37;69.51;98656.56;4957742;28;20023;-61
2021/08/22 04:44:35;;;;;;;8.23;5.65;;;;;;;21.24;69.48;98647.69;4951066;28;20031;-61
2021/08/22 04:47:01;;;;;;;9.25;5.68;;;;;;;21.43;69.13;98666.28;4959536;28;20389;-61
2021/08/22 04:49:26;;;;;;;7.28;5.30;;;;;;;21.42;69.50;98664.66;4961515;28;20480;-60
2021/08/22 04:51:52;;;;;;;8.73;5.68;;;;;;;21.51;69.04;98676.66;4958597;28;20027;-61
2021/08/22 04:54:18;;;;;;;8.43;5.35;;;;;;;21.45;69.22;98675.66;4957463;28;20039;-60
2021/08/22 04:56:43;;;;;;;8.85;5.20;;;;;;;21.26;69.73;98645.63;4963515;28;20023;-60
2021/08/22 04:59:09;;;;;;;7.47;5.25;;;;;;;21.42;70.23;98681.34;4962938;28;20035;-61
2021/08/22 05:01:34;;;;;;;9.48;5.80;;;;;;;21.49;69.99;98692.72;4976262;28;20019;-61
2021/08/22 05:04:00;;;;;;;8.63;5.50;;;;;;;21.49;69.77;98689.28;4962259;28;20049;-62
2021/08/22 05:06:25;;;;;;;8.13;5.60;;;;;;;21.55;69.54;98693.69;4961740;28;20031;-60
2021/08/22 05:08:51;;;;;;;9.85;5.63;;;;;;;21.48;70.26;98695.56;4960488;28;20039;-60
2021/08/22 05:11:16;;;;;;;8.63;5.07;;;;;;;21.18;70.08;98645.91;4944107;28;20128;-60
2021/08/22 05:13:41;;;;;;;7.90;5.40;;;;;;;21.24;70.35;98654.81;4944066;28;20041;-60
2021/08/22 05:16:07;;;;;;;9.50;5.32;;;;;;;21.51;69.98;98687.22;4960359;28;20024;-61
2021/08/22 05:18:33;;;;;;;9.20;5.57;;;;;;;21.56;69.86;98682.09;4940601;28;20098;-59
2021/08/22 05:20:58;;;;;;;7.95;5.00;;;;;;;21.48;69.59;98661.19;4963634;28;20474;-61
2021/08/22 05:23:23;;;;;;;8.63;5.40;;;;;;;21.61;70.30;98684.09;4956646;28;20440;-60
2021/08/22 05:25:49;;;;;;;7.60;5.05;;;;;;;21.42;70.07;98633.72;4956177;28;20421;-60
2021/08/22 05:28:14;;;;;;;8.70;5.68;;;;;;;21.63;69.07;98676.75;4959339;28;20031;-60
2021/08/22 05:30:40;;;;;;;9.65;5.35;;;;;;;21.66;69.62;98679.78;4963972;28;20496;-60
2021/08/22 05:33:05;;;;;;;8.00;5.30;;;;;;;21.42;69.22;98646.97;4960181;28;20038;-60
2021/08/22 05:35:31;;;;;;;9.80;5.25;;;;;;;21.63;69.36;98688.16;4973757;28;20023;-60
2021/08/22 05:37:56;;;;;;;8.50;5.50;;;;;;;21.68;69.23;98684.84;4961627;28;20038;-60
2021/08/22 05:40:22;;;;;;;10.85;5.35;;;;;;;21.67;68.93;98680.59;4942117;28;20193;-59
2021/08/22 05:42:47;;;;;;;7.68;5.32;;;;;;;21.68;68.95;98679.56;4964757;28;20073;-60
2021/08/22 05:45:12;;;;;;;7.53;5.30;;;;;;;21.74;68.89;98677.91;4943200;28;20030;-60
2021/08/22 05:47:38;;;;;;;7.70;4.90;;;;;;;21.75;68.66;98674.25;4955304;28;20057;-60
2021/08/22 05:50:04;;;;;;;7.65;5.30;;;;;;;21.72;68.37;98672.81;4961617;28;20030;-60
2021/08/22 05:52:34;;;;;;;8.00;5.45;;;;;;;21.72;68.49;98685.25;4959659;28;20734;-60
2021/08/22 05:55:05;;;;;;;8.35;5.40;;;;;;;21.77;68.35;98686.22;4950853;28;20050;-59
2021/08/22 05:57:31;;;;;;;7.93;5.57;;;;;;;21.72;68.65;98691.34;4952563;28;20840;-60
2021/08/22 05:59:56;;;;;;;8.88;5.63;;;;;;;21.77;68.35;98690.72;4953633;28;20039;-59
2021/08/22 06:02:22;;;;;;;8.63;5.35;;;;;;;21.83;67.97;98692.47;4955650;28;20027;-60
2021/08/22 06:04:47;;;;;;;7.53;5.40;;;;;;;21.79;68.05;98688.66;4954488;28;20030;-60
2021/08/22 06:07:18;;;;;;;9.23;5.50;;;;;;;21.76;67.11;98691.72;4976441;28;20478;-60
2021/08/22 06:09:44;;;;;;;8.98;5.22;;;;;;;21.85;67.15;98698.41;4971516;28;20114;-60
2021/08/22 06:12:09;;;;;;;7.38;5.10;;;;;;;21.92;67.20;98701.78;4955143;28;20130;-60
2021/08/22 06:14:35;;;;;;;8.68;5.38;;;;;;;21.66;67.02;98671.03;4962794;28;20034;-60
2021/08/22 06:17:00;;;;;;;7.75;5.47;;;;;;;21.85;67.77;98707.13;4962722;28;20042;-60
2021/08/22 06:19:26;;;;;;;7.35;5.13;;;;;;;21.97;67.29;98707.22;4956913;28;20034;-60
2021/08/22 06:21:51;;;;;;;9.90;5.45;;;;;;;22.03;66.87;98710.84;4955221;28;20035;-61
2021/08/22 06:24:16;;;;;;;8.40;5.20;;;;;;;21.95;67.57;98706.63;4953852;28;20516;-60
2021/08/22 06:26:42;;;;;;;7.32;5.07;;;;;;;22.11;67.28;98715.09;4952652;28;21339;-60
2021/08/22 06:29:07;;;;;;;7.43;5.13;;;;;;;21.99;67.82;98714.97;4959118;28;20035;-60
2021/08/22 06:31:33;;;;;;;7.60;5.15;;;;;;;22.08;67.49;98713.66;4961376;28;20877;-60
2021/08/22 06:33:58;;;;;;;8.20;5.32;;;;;;;22.13;66.64;98713.03;4959123;28;20030;-60
2021/08/22 06:36:23;;;;;;;7.85;5.45;;;;;;;22.17;66.35;98720.31;4959648;28;20038;-60
2021/08/22 06:38:49;;;;;;;7.53;5.28;;;;;;;22.13;66.78;98710.38;4939056;28;20019;-59
2021/08/22 06:41:14;;;;;;;9.32;5.05;;;;;;;21.98;67.36;98679.75;4956328;28;20438;-61
2021/08/22 06:43:40;;;;;;;7.82;5.18;;;;;;;21.84;67.25;98646.47;4951953;28;20035;-61
2021/08/22 06:46:05;;;;;;;8.70;5.47;;;;;;;22.14;66.78;98712.81;4961902;28;20134;-60
2021/08/22 06:48:30;;;;;;;9.20;5.47;;;;;;;22.20;66.98;98711.94;4947982;28;20023;-60
2021/08/22 06:50:56;;;;;;;7.80;5.35;;;;;;;22.22;67.60;98717.00;4966422;28;20027;-62
2021/08/22 06:53:21;;;;;;;8.18;5.28;;;;;;;22.05;67.47;98680.50;4959731;28;20031;-60
2021/08/22 06:55:47;;;;;;;8.50;5.25;;;;;;;22.25;66.68;98714.75;4957685;28;20166;-61
2021/08/22 06:58:12;;;;;;;8.05;5.38;;;;;;;22.23;66.47;98721.28;4955698;28;20038;-60
2021/08/22 07:00:37;;;;;;;7.10;5.15;;;;;;;22.37;67.07;98724.66;4957342;28;20039;-60
2021/08/22 07:03:03;;;;;;;8.60;5.20;;;;;;;22.23;66.75;98718.63;4959403;28;20030;-60
2021/08/22 07:05:28;;;;;;;8.52;5.10;;;;;;;22.42;66.52;98730.09;4958920;28;20042;-60
2021/08/22 07:07:54;;;;;;;9.20;5.47;;;;;;;22.53;65.91;98728.56;4959116;28;20031;-61
2021/08/22 07:10:19;;;;;;;8.25;5.70;;;;;;;22.58;66.31;98726.88;4959879;28;20042;-60
2021/08/22 07:12:45;;;;;;;7.75;5.10;;;;;;;22.41;66.54;98736.41;4955342;28;20038;-61
2021/08/22 07:15:13;;;;;;;8.57;5.60;;;;;;;22.43;66.52;98729.91;4971206;28;20051;-60
2021/08/22 07:17:39;;;;;;;6.97;5.60;;;;;;;22.37;66.81;98729.94;4955376;28;20069;-60
2021/08/22 07:20:06;;;;;;;10.05;5.80;;;;;;;22.40;66.83;98716.28;4976324;28;20027;-60
2021/08/22 07:22:31;;;;;;;9.00;6.80;;;;;;;22.44;66.58;98726.19;4956810;28;20042;-60
2021/08/22 07:24:59;;;;;;;9.55;6.55;;;;;;;22.50;66.78;98723.72;4954786;28;20031;-60
2021/08/22 07:27:25;;;;;;;11.07;7.80;;;;;;;22.46;66.94;98720.69;4956555;28;20290;-60
2021/08/22 07:29:51;;;;;;;8.98;6.15;;;;;;;22.53;66.56;98717.97;4954943;28;20026;-60
2021/08/22 07:32:16;;;;;;;9.32;6.00;;;;;;;22.60;66.68;98719.53;4953751;28;20483;-61
2021/08/22 07:34:42;;;;;;;8.05;5.25;;;;;;;22.32;67.05;98661.72;4965499;28;20117;-61
2021/08/22 07:37:07;;;;;;;8.80;5.50;;;;;;;22.69;66.77;98719.22;4949854;28;20035;-61
2021/08/22 07:39:33;;;;;;;11.32;5.82;;;;;;;22.71;66.70;98704.72;4955637;28;20050;-61
2021/08/22 07:41:58;;;;;;;8.65;5.22;;;;;;;22.71;67.09;98712.69;4950922;28;20061;-61
2021/08/22 07:44:24;;;;;;;8.57;5.53;;;;;;;22.80;66.55;98714.00;4951230;28;20082;-61
2021/08/22 07:46:49;;;;;;;8.57;5.57;;;;;;;22.90;66.26;98720.63;4948457;28;20039;-61
2021/08/22 07:49:19;;;;;;;10.70;5.90;;;;;;;22.98;64.69;98715.84;4950560;28;20042;-59
2021/08/22 07:51:46;;;;;;;8.73;5.55;;;;;;;23.15;63.99;98726.66;4952496;28;20037;-61
2021/08/22 07:54:12;;;;;;;6.93;5.10;;;;;;;23.24;64.29;98724.53;4950038;28;20097;-61
2021/08/22 07:56:42;;;;;;;8.27;5.35;;;;;;;23.16;62.92;98690.34;4958908;28;20725;-61
2021/08/22 07:59:07;;;;;;;8.38;5.32;;;;;;;23.03;63.68;98680.69;4949171;28;20478;-61
2021/08/22 08:01:33;;;;;;;7.88;5.78;;;;;;;23.04;63.76;98727.44;4940828;28;20039;-60
2021/08/22 08:03:58;;;;;;;9.50;5.32;;;;;;;23.00;63.04;98715.63;4953514;28;20098;-61
2021/08/22 08:06:23;;;;;;;10.20;6.00;;;;;;;22.91;63.30;98695.72;4946713;28;20118;-60
2021/08/22 08:08:49;;;;;;;9.40;5.40;;;;;;;23.00;64.68;98734.97;4944196;28;20042;-60
2021/08/22 08:11:14;;;;;;;8.65;5.28;;;;;;;23.09;61.97;98729.41;4944869;28;20160;-60
2021/08/22 08:13:40;;;;;;;8.35;5.30;;;;;;;23.07;63.91;98724.31;4949633;28;20035;-60
2021/08/22 08:16:05;;;;;;;8.20;5.30;;;;;;;23.08;64.07;98730.44;4965558;28;20043;-60
2021/08/22 08:18:31;;;;;;;7.72;5.38;;;;;;;23.12;63.90;98729.75;4946270;28;20031;-61
2021/08/22 08:20:56;;;;;;;10.30;5.50;;;;;;;23.28;62.91;98731.00;4952144;28;20046;-60
2021/08/22 08:23:23;;;;;;;7.55;5.15;;;;;;;23.23;62.85;98731.66;4964894;28;20027;-61
2021/08/22 08:25:48;;;;;;;8.75;5.53;;;;;;;23.26;62.76;98722.44;4949639;28;20046;-61
2021/08/22 08:28:13;;;;;;;8.80;5.25;;;;;;;23.40;61.94;98725.72;4932302;28;20034;-61
2021/08/22 08:30:39;;;;;;;7.03;5.22;;;;;;;23.79;61.72;98727.03;4946295;28;20077;-61
2021/08/22 08:33:04;;;;;;;8.68;5.60;;;;;;;23.85;61.06;98672.19;4950712;28;20034;-60
2021/08/22 08:35:30;;;;;;;8.93;5.22;;;;;;;24.45;59.74;98718.19;4950835;28;20484;-61
2021/08/22 08:37:55;;;;;;;7.70;5.22;;;;;;;24.61;58.77;98669.66;4962961;28;20063;-60
2021/08/22 08:40:21;;;;;;;9.23;5.22;;;;;;;25.42;57.48;98712.19;4969372;28;20036;-61
2021/08/22 08:42:58;;;;;;;9.95;5.20;;;;;;;25.13;55.82;98708.69;4947340;28;20566;-62
2021/08/22 08:45:32;;;;;;;8.20;4.97;;;;;;;25.34;55.20;98712.59;4955657;28;20178;-61
2021/08/22 08:47:58;;;;;;;8.73;5.68;;;;;;;25.33;55.43;98703.78;4952873;28;20038;-60
2021/08/22 08:50:36;;;;;;;6.80;4.72;;;;;;;25.48;56.23;98711.25;4955400;28;20034;-59
2021/08/22 08:53:06;;;;;;;7.25;5.10;;;;;;;25.79;55.82;98705.59;4949385;28;20030;-60
2021/08/22 08:55:41;;;;;;;8.27;5.30;;;;;;;25.67;56.32;98671.88;4956380;28;20042;-60
2021/08/22 08:58:06;;;;;;;9.40;5.60;;;;;;;25.83;55.83;98696.06;4952970;28;20584;-60
2021/08/22 09:00:37;;;;;;;8.07;5.03;;;;;;;25.60;55.62;98695.19;4960358;28;20045;-61
2021/08/22 09:03:03;;;;;;;6.78;5.10;;;;;;;25.43;57.47;98700.50;4956688;28;20031;-60
2021/08/22 09:05:57;;;;;;;9.68;5.25;;;;;;;25.13;58.26;98704.19;4955708;28;20054;-60
2021/08/22 09:08:47;;;;;;;7.70;4.90;;;;;;;24.74;60.08;98703.16;4957505;28;20038;-60
2021/08/22 09:11:15;;;;;;;7.68;5.47;;;;;;;24.86;60.61;98701.28;4960884;28;20062;-60
2021/08/22 09:13:44;;;;;;;7.10;5.10;;;;;;;24.68;59.10;98696.91;4946364;28;20050;-61
2021/08/22 09:16:43;;;;;;;7.88;5.50;;;;;;;24.64;59.96;98694.94;4950494;28;20440;-60
2021/08/22 09:19:46;;;;;;;9.13;5.40;;;;;;;24.49;60.57;98698.06;4967376;28;20039;-60
2021/08/22 09:22:39;;;;;;;8.90;5.20;;;;;;;24.65;60.75;98701.91;4949736;28;20509;-61
2021/08/22 09:25:39;;;;;;;7.00;5.03;;;;;;;24.78;60.53;98693.66;4956886;28;20027;-60
2021/08/22 09:28:41;;;;;;;7.05;5.18;;;;;;;24.68;59.64;98696.09;4960033;28;20035;-57
2021/08/22 09:31:25;;;;;;;7.35;4.90;;;;;;;24.61;59.74;98700.75;4946330;28;20038;-61
2021/08/22 09:34:28;;;;;;;7.88;5.45;;;;;;;24.71;60.45;98693.78;4955832;28;20046;-60
2021/08/22 09:37:11;;;;;;;7.95;5.57;;;;;;;24.77;60.77;98691.22;4955259;28;20541;-64
2021/08/22 09:40:14;;;;;;;6.90;5.25;;;;;;;24.85;59.89;98691.66;4958748;28;20545;-63
2021/08/22 09:43:07;;;;;;;9.63;5.63;;;;;;;24.69;59.90;98685.22;4960912;28;20019;-64
2021/08/22 09:46:10;;;;;;;8.07;5.30;;;;;;;24.65;60.98;98681.44;4960057;28;20110;-64
2021/08/22 09:49:15;;;;;;;8.50;5.20;;;;;;;24.75;59.72;98672.84;4961121;28;20034;-74
2021/08/22 09:51:47;;;;;;;8.98;5.38;;;;;;;24.59;58.38;98681.56;4957085;28;20804;-74
2021/08/22 09:54:34;;;;;;;7.97;5.40;;;;;;;24.35;57.98;98629.25;4961321;28;20043;-74
2021/08/22 09:57:38;;;;;;;8.30;5.03;;;;;;;24.76;58.93;98666.50;4959095;28;20045;-74
2021/08/22 10:00:31;;;;;;;6.90;4.90;;;;;;;24.94;57.95;98663.66;4957780;28;20034;-73
2021/08/22 10:03:36;;;;;;;9.45;5.80;;;;;;;24.90;59.44;98659.88;4958988;28;20057;-73
2021/08/22 10:06:04;;;;;;;9.32;5.63;;;;;;;24.79;58.29;98612.84;4954476;28;20031;-74
2021/08/22 10:08:35;;;;;;;7.95;5.03;;;;;;;25.02;56.44;98649.16;4957449;28;20038;-74
2021/08/22 10:11:02;;;;;;;8.93;5.03;;;;;;;25.02;56.37;98648.38;4956211;28;20031;-73
2021/08/22 10:13:29;;;;;;;9.15;5.10;;;;;;;24.92;56.39;98636.50;4942633;28;20035;-74
2021/08/22 10:15:55;;;;;;;8.15;5.05;;;;;;;25.02;57.00;98635.06;4959477;28;20060;-73
2021/08/22 10:18:24;;;;;;;9.25;5.45;;;;;;;24.98;56.65;98623.31;4939010;28;20743;-72
2021/08/22 10:20:50;;;;;;;8.32;5.35;;;;;;;24.99;57.25;98625.72;4959155;28;20531;-73
2021/08/22 10:23:43;;;;;;;7.95;5.60;;;;;;;25.13;57.55;98632.38;4938078;28;20031;-73
2021/08/22 10:26:50;;;;;;;8.68;5.45;;;;;;;25.36;57.21;98621.88;4953643;28;20081;-71
2021/08/22 10:29:20;;;;;;;8.82;5.47;;;;;;;25.33;57.13;98623.94;4956433;28;20035;-73
2021/08/22 10:31:48;;;;;;;7.07;5.30;;;;;;;25.02;57.38;98572.03;4953813;28;20022;-70
2021/08/22 10:34:14;;;;;;;8.57;5.07;;;;;;;25.40;57.36;98612.34;4948979;28;20041;-72
2021/08/22 10:36:40;;;;;;;11.68;5.30;;;;;;;25.46;56.79;98609.53;4952210;28;20421;-72
2021/08/22 10:39:27;;;;;;;8.48;5.07;;;;;;;25.63;56.52;98606.06;4952609;28;20035;-73
2021/08/22 10:41:59;;;;;;;8.73;5.10;;;;;;;25.46;54.70;98606.03;4951629;28;20042;-71
2021/08/22 10:44:34;;;;;;;8.18;5.03;;;;;;;25.64;52.07;98605.00;4935050;28;20028;-73
2021/08/22 10:47:00;;;;;;;7.78;4.95;;;;;;;25.64;54.83;98600.47;4948270;28;20030;-72
2021/08/22 10:49:50;;;;;;;6.93;5.03;;;;;;;25.65;55.45;98566.69;4947975;28;20037;-69
2021/08/22 10:52:29;;;;;;;7.93;5.28;;;;;;;25.96;55.46;98599.13;4949142;28;20042;-72
2021/08/22 10:55:12;;;;;;;6.20;4.20;;;;;;;26.08;52.00;98594.47;4947201;28;20042;-72
2021/08/22 10:57:50;;;;;;;12.35;5.43;;;;;;;26.07;53.12;98588.34;4944540;28;20039;-71
2021/08/22 11:00:25;;;;;;;7.50;4.90;;;;;;;25.91;53.20;98578.50;4953488;28;20449;-72
2021/08/22 11:03:00;;;;;;;7.05;5.07;;;;;;;26.13;54.80;98573.22;4951182;28;20031;-72
2021/08/22 11:05:27;;;;;;;9.38;5.07;;;;;;;25.77;54.76;98537.28;4936058;28;20035;-73
2021/08/22 11:07:55;;;;;;;8.80;5.25;;;;;;;25.61;56.35;98579.69;4960623;28;20054;-73
2021/08/22 11:10:24;;;;;;;6.90;4.90;;;;;;;25.61;55.28;98570.88;4944993;28;20027;-73
2021/08/22 11:12:52;;;;;;;6.93;4.90;;;;;;;25.61;53.71;98565.53;4957233;28;20047;-73
2021/08/22 11:15:22;;;;;;;6.93;4.72;;;;;;;25.64;52.54;98563.19;4973905;28;20065;-73
2021/08/22 11:17:53;;;;;;;7.68;4.68;;;;;;;25.85;51.14;98566.19;4963005;28;20027;-73
2021/08/22 11:20:20;;;;;;;7.57;4.55;;;;;;;25.94;51.52;98551.41;4945756;28;20545;-73
2021/08/22 11:22:47;;;;;;;8.13;4.90;;;;;;;26.08;51.36;98562.50;4956148;28;20043;-73
2021/08/22 11:25:13;;;;;;;8.32;4.70;;;;;;;26.21;49.34;98554.16;4954295;28;20080;-71
2021/08/22 11:27:40;;;;;;;8.63;4.45;;;;;;;26.24;48.56;98529.66;4941406;28;20577;-71
2021/08/22 11:30:08;;;;;;;9.85;4.82;;;;;;;26.52;48.66;98543.03;4936666;28;21025;-72
2021/08/22 11:32:34;;;;;;;8.00;4.50;;;;;;;26.33;47.62;98508.72;4946986;28;20050;-71
2021/08/22 11:35:17;;;;;;;8.18;4.38;;;;;;;26.59;48.38;98531.09;4947576;28;20108;-72
2021/08/22 11:37:43;;;;;;;8.98;4.50;;;;;;;26.69;47.01;98540.28;4967670;28;20156;-72
2021/08/22 11:40:11;;;;;;;8.18;4.65;;;;;;;26.49;51.17;98533.69;4951546;28;20363;-72
2021/08/22 11:42:37;;;;;;;7.45;5.18;;;;;;;26.64;54.15;98533.06;4942339;28;20047;-71